Tiempo atmosférico en la estación meteorológica de Ejea De Los Caballeros, Zaragoza (321 m.)



Fecha
DESCASC
Temp. máxima en grados centígrados (hora)
DESCASC
Temp. mínima en grados centígrados (hora)
DESCASC
Temp. media en grados centígrados
DESCASC
Racha de viento máxima en m/sg (hora)
DESCASC
Velocidad máxima media en intervalos de 10 minutos(hora)
DESCASC
Precipitaciones diarias en mm
DESCASC
Precipitaciones de 00:00 a 06:00 en mm
DESCASC
Precipitaciones de 06:00 a 12:00 en mm
DESCASC
Precipitaciones de 12:00 a 18:00 en mm
DESCASC
Precipitaciones de 18:00 a 24:00 en mm
DESCASC
13-01-2021 11.2 (15:20) 3.8 (01:50) 7.5 11.67 (12:30) 4.72 (12:50) 0 0 0 0 0
12-01-2021 7.4 (15:20) 0.5 (07:10) 4 9.44 (21:20) 4.17 (20:50) 0 0 0 0 0
11-01-2021 4.6 (14:00) -2.4 (01:10) 1.1 8.33 (17:50) 4.17 (17:20) 0 0 0 0 0
10-01-2021 2.9 (12:40) -2 (23:59) 0.5 7.22 (16:10) 3.06 (16:40) 3 3 0 0 0
09-01-2021 0.6 (14:20) -0.7 (-00:0) 0 4.72 (13:10) 1.67 (13:30) 15.6 0.8 3.6 5.2 6
08-01-2021 1.3 (16:00) -6.5 (-00:0) -2.6 2.22 (12:20) 1.11 (11:50) 0 0 0 0 0
07-01-2021 1 (15:30) -5 (-00:0) -2 2.78 (13:50) 1.11 (13:50) 0 0 0 0 0
06-01-2021 7.3 (16:30) -4.9 (-00:0) 1.2 3.61 (15:30) 1.39 (15:30) 0 0 0 0 0
05-01-2021 6.7 (14:10) -1.1 (-00:0) 2.8 6.11 (12:30) 2.78 (13:00) 0 0 0 0 0
04-01-2021 6 (16:00) -2.4 (-00:0) 1.8 7.22 (19:30) 3.06 (19:30) 0 0 0 0 0
03-01-2021 8.6 (15:30) 0.5 (00:00) 4.6 8.61 (02:20) 3.61 (01:50) 0 0 0 0 0
02-01-2021 6.3 (12:00) 1 (00:00) 3.7 10.83 (12:30) 3.89 (14:50) 0 0 0 0 0
01-01-2021 9 (15:20) 2 (00:00) 5.5 7.22 (13:10) 3.06 (13:30) 0 0 0 0 0
31-12-2020 9.3 (14:30) -1.2 (-00:0) 4.1 5 (21:50) 1.67 (21:40) 1.2 0 0 0 1.2
30-12-2020 9.2 (14:40) 1.5 (00:00) 5.3 8.06 (05:00) 3.61 (11:50) 0 0 0 0 0
29-12-2020 10.5 (16:10) 0 (00:00) 5.3 9.44 (16:20) 3.06 (14:50) 0 0 0 0 0
28-12-2020 11.1 (16:30) 3.7 (00:00) 7.4 15.28 (00:20) 7.22 (00:30) 2.6 2.6 0 0 0
27-12-2020 9.8 (23:59) -1.5 (-00:0) 4.2 15.28 (23:50) 6.67 (23:50) 0 0 0 0 0
26-12-2020 8.2 (14:10) 2.6 (00:00) 5.4 12.22 (12:50) 4.17 (21:00) 0 0 0 0 0
25-12-2020 7.1 (15:40) 2.4 (00:00) 4.8 12.22 (13:20) 6.11 (13:20) 0 0 0 0 0
24-12-2020 11.1 (16:30) 6.8 (00:00) 9 7.5 (13:10) 2.78 (11:30) 0 0 0 0 0
23-12-2020 9.1 (16:00) 3.5 (05:20) 6.3 4.17 (06:40) 1.94 (14:00) 0 0 0 0 0
21-12-2020 11.7 (14:30) 3.9 (00:00) 7.8 4.44 (04:20) 1.94 (16:00) 0.2 0 0.2 0 0
20-12-2020 12.5 (15:20) 4 (00:00) 8.3 6.11 (14:20) 2.78 (15:00) 0.2 0 0.2 0 0
19-12-2020 10.9 (15:00) 4.5 (00:00) 7.7 5.83 (08:20) 1.94 (08:30) 4.6 0 0 0.6 4
18-12-2020 9.2 (16:40) 2.6 (00:00) 5.9 5.83 (22:20) 1.67 (22:20) 0 0 0 0 0

Gráficas

Temp. máximas Temp. mínimas Temp. medias Precipitaciones Rachas de viento máximas Velocidades máximas media en intervalos de 10 minutos

Datos horarios

Fecha y hora oficial Temperatura (ºC) Velocidad del viento (km/h) Dirección del viento Racha (km/h) Dirección de racha Precipitación (mm) Presión (hPa) Tendencia (hPa) Humedad (%)
2021-01-16 23:00:00 4.5 3 Sudoeste 7 Oeste 0 -- -- 68
2021-01-16 22:00:00 5.2 2 Norte 7 Norte 0 -- -- 60
2021-01-16 21:00:00 6.1 0 Calma 6 Oeste 0 -- -- 60
2021-01-16 20:00:00 7.8 3 Sudoeste 9 Oeste 0 -- -- 57
2021-01-16 19:00:00 10.2 5 Oeste 13 Oeste 0 -- -- 46
2021-01-16 18:00:00 12.1 5 Oeste 26 Oeste 0 -- -- 41
2021-01-16 17:00:00 13.2 12 Oeste 33 Noroeste 0 -- -- 45
2021-01-16 16:00:00 13.3 15 Oeste 28 Oeste 0 -- -- 44
2021-01-16 15:00:00 12.7 13 Oeste 29 Oeste 0 -- -- 47
2021-01-16 14:00:00 11.5 9 Oeste 35 Oeste 0 -- -- 52
2021-01-16 13:00:00 10.2 16 Oeste 32 Noroeste 0 -- -- 59
2021-01-16 12:00:00 9.4 13 Oeste 29 Oeste 0 -- -- 57
2021-01-16 11:00:00 7.9 9 Oeste 26 Noroeste 0 -- -- 64
2021-01-16 10:00:00 5.8 5 Norte 22 Norte 0 -- -- 72
2021-01-16 09:00:00 5.3 8 Oeste 27 Noroeste 0 -- -- 74
2021-01-16 08:00:00 5.4 9 Oeste 26 Oeste 0 -- -- 74
2021-01-16 07:00:00 5.5 7 Oeste 29 Noroeste 0 -- -- 74
2021-01-16 06:00:00 5.9 10 Norte 31 Noroeste 0 -- -- 71
2021-01-16 05:00:00 6.1 8 Nordeste 39 Oeste 0 -- -- 71
2021-01-16 04:00:00 6.5 11 Oeste 39 Noroeste 0 -- -- 70
2021-01-16 03:00:00 7 20 Oeste 39 Oeste 0 -- -- 71
2021-01-16 02:00:00 6.9 18 Oeste 36 Noroeste 0 -- -- 72
2021-01-16 01:00:00 6.8 16 Oeste 30 Oeste 0 -- -- 74
2021-01-16 00:00:00 7 15 Oeste 33 Oeste 0 -- -- 75
2021-01-15 23:00:00 7.2 15 Oeste 30 Oeste 0 -- -- 72
2021-01-15 22:00:00 7 15 Oeste 33 Sudoeste 0 -- -- 75
2021-01-15 21:00:00 7.3 12 Sudoeste 29 Sudoeste 0 -- -- 75
2021-01-15 20:00:00 7.8 12 Oeste 29 Oeste 0 -- -- 73
2021-01-15 19:00:00 8.2 15 Oeste 29 Oeste 0 -- -- 71
2021-01-15 18:00:00 8.7 6 Noroeste 30 Oeste 0 -- -- 71
2021-01-15 17:00:00 10.1 10 Oeste 36 Oeste 0 -- -- 64
2021-01-15 16:00:00 10.8 7 Nordeste 28 Oeste 0 -- -- 63
2021-01-15 15:00:00 11.1 10 Oeste 39 Oeste 0 -- -- 61
2021-01-15 14:00:00 11.7 10 Oeste 37 Noroeste 0 -- -- 57
2021-01-15 13:00:00 10.9 8 Oeste 28 Oeste 0 -- -- 59
2021-01-15 12:00:00 10.1 13 Oeste 34 Oeste 0 -- -- 63
2021-01-15 11:00:00 8.1 16 Oeste 31 Oeste 0 -- -- 76
2021-01-15 10:00:00 7.5 15 Oeste 33 Oeste 0 -- -- 79
2021-01-15 09:00:00 6.8 16 Oeste 34 Oeste 0 -- -- 80
2021-01-15 08:00:00 7 13 Oeste 33 Oeste 0 -- -- 80
2021-01-15 07:00:00 6.5 13 Oeste 32 Oeste 0 -- -- 80
2021-01-15 06:00:00 7.1 12 Oeste 27 Noroeste 0 -- -- 76
2021-01-15 05:00:00 7.4 7 Oeste 31 Noroeste 0 -- -- 73
2021-01-15 04:00:00 6.9 13 Oeste 25 Oeste 0 -- -- 75
2021-01-15 03:00:00 7.4 10 Oeste 26 Noroeste 0 -- -- 77
2021-01-15 02:00:00 7.5 8 Oeste 26 Noroeste 0 -- -- 77
2021-01-15 01:00:00 7.5 10 Oeste 29 Oeste 0 -- -- 84
2021-01-15 00:00:00 7.7 12 Oeste 26 Oeste 0 -- -- 84
2021-01-14 23:00:00 7.5 10 Oeste 28 Oeste 0 -- -- 84
2021-01-14 22:00:00 7.5 12 Oeste 32 Noroeste 0 -- -- 84
2021-01-14 21:00:00 7.4 10 Oeste 29 Noroeste 0 -- -- 82
2021-01-14 20:00:00 7.1 11 Oeste 23 Oeste 0 -- -- 78
2021-01-14 19:00:00 7.8 10 Oeste 28 Noroeste 0 -- -- 74
2021-01-14 18:00:00 8.9 10 Oeste 32 Noroeste 0 -- -- 73
2021-01-14 17:00:00 10.7 12 Oeste 24 Oeste 0 -- -- 64
2021-01-14 16:00:00 11.6 6 Oeste 27 Oeste 0 -- -- 59
2021-01-14 15:00:00 11.6 9 Oeste 40 Oeste 0 -- -- 58
2021-01-14 14:00:00 11 13 Oeste 32 Oeste 0 -- -- 64
2021-01-14 13:00:00 10.9 8 Norte 31 Oeste 0 -- -- 65
2021-01-14 12:00:00 10 10 Oeste 30 Oeste 0 -- -- 69
2021-01-14 11:00:00 7.5 10 Oeste 32 Oeste 0 -- -- 77
2021-01-14 10:00:00 5.5 8 Oeste 22 Oeste 0 -- -- 80
2021-01-14 09:00:00 4 5 Oeste 18 Oeste 0 -- -- 84
2021-01-14 08:00:00 4.3 7 Oeste 19 Oeste 0 -- -- 83
2021-01-14 07:00:00 4.2 7 Oeste 18 Oeste 0 -- -- 84
2021-01-14 06:00:00 4 7 Oeste 17 Oeste 0 -- -- 84
2021-01-14 05:00:00 4.2 9 Oeste 22 Oeste 0 -- -- 84
2021-01-14 04:00:00 4.4 4 Sudoeste 17 Noroeste 0 -- -- 84
2021-01-14 03:00:00 5 8 Oeste 26 Oeste 0 -- -- 83
2021-01-14 02:00:00 5.4 10 Oeste 28 Oeste 0 -- -- 82
2021-01-14 01:00:00 5.8 10 Oeste 23 Oeste 0 -- -- 83
2021-01-14 00:00:00 5.8 10 Oeste 21 Oeste 0 -- -- 83
2021-01-13 23:00:00 5.7 7 Oeste 18 Sudoeste 0 -- -- 84
2021-01-13 22:00:00 6.1 7 Oeste 17 Sudoeste 0 -- -- 82
2021-01-13 21:00:00 6.4 5 Oeste 22 Noroeste 0 -- -- 79
2021-01-13 20:00:00 6.9 10 Oeste 24 Oeste 0 -- -- 78
2021-01-13 19:00:00 7.3 8 Oeste 22 Oeste 0 -- -- 77
2021-01-13 18:00:00 8.6 11 Oeste 33 Oeste 0 -- -- 73
2021-01-13 17:00:00 10.2 13 Oeste 35 Noroeste 0 -- -- 66
2021-01-13 16:00:00 11.1 15 Oeste 34 Oeste 0 -- -- 66
2021-01-13 15:00:00 11 15 Oeste 38 Noroeste 0 -- -- 68
2021-01-13 14:00:00 10.5 12 Oeste 41 Noroeste 0 -- -- 69
2021-01-13 13:00:00 9.6 17 Oeste 42 Oeste 0 -- -- 70
2021-01-13 12:00:00 8.9 13 Oeste 34 Oeste 0 -- -- 72
2021-01-13 11:00:00 7.4 14 Oeste 36 Oeste 0 -- -- 75
2021-01-13 10:00:00 5.6 13 Oeste 36 Oeste 0 -- -- 79
2021-01-13 09:00:00 4.8 14 Oeste 39 Oeste 0 -- -- 79
2021-01-13 08:00:00 4.4 15 Oeste 35 Oeste 0 -- -- 80
2021-01-13 07:00:00 4.8 14 Oeste 30 Oeste 0 -- -- 79
2021-01-13 06:00:00 4.8 13 Oeste 33 Oeste 0 -- -- 79
2021-01-13 05:00:00 4.3 10 Oeste 33 Noroeste 0 -- -- 80
2021-01-13 04:00:00 4.5 13 Oeste 36 Oeste 0 -- -- 78
2021-01-13 03:00:00 4.6 15 Oeste 35 Oeste 0 -- -- 78
2021-01-13 02:00:00 3.8 10 Oeste 25 Oeste 0 -- -- 80
2021-01-13 01:00:00 4.2 10 Oeste 30 Oeste 0 -- -- 78
2021-01-13 00:00:00 4.3 13 Oeste 28 Noroeste 0 -- -- 78
2021-01-12 23:00:00 4.7 12 Oeste 30 Noroeste 0 -- -- 77
2021-01-12 22:00:00 4.7 13 Oeste 34 Oeste 0 -- -- 78
2021-01-12 21:00:00 5.1 15 Oeste 30 Oeste 0 -- -- 75
2021-01-12 20:00:00 4.4 7 Sudoeste 19 Sudoeste 0 -- -- 78
2021-01-12 19:00:00 4.6 7 Sudoeste 19 Sudoeste 0 -- -- 77
2021-01-12 18:00:00 5.4 10 Oeste 23 Oeste 0 -- -- 73
2021-01-12 17:00:00 6.8 7 Oeste 24 Oeste 0 -- -- 68
2021-01-12 16:00:00 7.3 7 Oeste 27 Noroeste 0 -- -- 67
2021-01-12 15:00:00 7.2 8 Oeste 26 Oeste 0 -- -- 67
2021-01-12 14:00:00 6.3 9 Oeste 26 Oeste 0 -- -- 69
2021-01-12 13:00:00 6 7 Oeste 24 Oeste 0 -- -- 70
2021-01-12 12:00:00 5.4 8 Oeste 21 Sudoeste 0 -- -- 72
2021-01-12 11:00:00 4.5 8 Oeste 19 Noroeste 0 -- -- 75
2021-01-12 10:00:00 2.9 8 Oeste 21 Oeste 0 -- -- 80
2021-01-12 09:00:00 1.2 3 Oeste 16 Noroeste 0 -- -- 83
2021-01-12 08:00:00 0.8 8 Oeste 17 Oeste 0 -- -- 83
2021-01-12 07:00:00 0.6 5 Oeste 18 Oeste 0 -- -- 81
2021-01-12 06:00:00 0.9 8 Oeste 21 Oeste 0 -- -- 80
2021-01-12 05:00:00 0.9 7 Oeste 16 Oeste 0 -- -- 80
2021-01-12 04:00:00 0.6 5 Oeste 14 Noroeste 0 -- -- 81
2021-01-12 03:00:00 1 6 Oeste 17 Oeste 0 -- -- 80
2021-01-12 02:00:00 1 7 Oeste 30 Oeste 0 -- -- 79
2021-01-12 01:00:00 1 9 Oeste 23 Oeste 0 -- -- 78
2021-01-12 00:00:00 0.9 11 Oeste 24 Oeste 0 -- -- 77
2021-01-11 23:00:00 0.8 9 Oeste 22 Oeste 0 -- -- 75
2021-01-11 22:00:00 0.6 12 Oeste 27 Noroeste 0 -- -- 74
2021-01-11 21:00:00 0.7 13 Oeste 30 Oeste 0 -- -- 72
2021-01-11 20:00:00 0.9 12 Oeste 29 Noroeste 0 -- -- 70
2021-01-11 19:00:00 1.4 12 Oeste 28 Noroeste 0 -- -- 69
2021-01-11 18:00:00 2.1 12 Oeste 30 Oeste 0 -- -- 68
2021-01-11 17:00:00 3.3 14 Oeste 30 Oeste 0 -- -- 64
2021-01-11 16:00:00 4 14 Oeste 29 Oeste 0 -- -- 62
2021-01-11 15:00:00 4.3 13 Oeste 26 Oeste 0 -- -- 60
2021-01-11 14:00:00 4.6 9 Oeste 23 Oeste 0 -- -- 57
2021-01-11 13:00:00 4.1 9 Oeste 23 Noroeste 0 -- -- 60
2021-01-11 12:00:00 3.4 8 Oeste 18 Oeste 0 -- -- 63
2021-01-11 11:00:00 1.9 7 Oeste 19 Noroeste 0 -- -- 65
2021-01-11 10:00:00 0 6 Oeste 19 Noroeste 0 -- -- 72
2021-01-11 09:00:00 -0.9 6 Oeste 14 Oeste 0 -- -- 74
2021-01-11 08:00:00 -0.6 5 Oeste 18 Oeste 0 -- -- 73
2021-01-11 07:00:00 -0.4 7 Oeste 23 Oeste 0 -- -- 73
2021-01-11 06:00:00 -0.4 9 Oeste 22 Oeste 0 -- -- 73
2021-01-11 05:00:00 -0.9 8 Oeste 22 Noroeste 0 -- -- 75
2021-01-11 04:00:00 -1.7 9 Oeste 19 Oeste 0 -- -- 75
2021-01-11 03:00:00 -2 6 Oeste 23 Sudoeste 0 -- -- 77
2021-01-11 02:00:00 -2.4 6 Oeste 18 Oeste 0 -- -- 78
2021-01-11 01:00:00 -2.3 6 Oeste 14 Oeste 0 -- -- 80
2021-01-11 00:00:00 -2 5 Oeste 18 Noroeste 0 -- -- 81
2021-01-10 23:00:00 -1.5 6 Oeste 15 Oeste 0 -- -- 81
2021-01-10 22:00:00 -0.9 5 Oeste 15 Oeste 0 -- -- 81
2021-01-10 21:00:00 -0.1 6 Oeste 21 Noroeste 0 -- -- 81
2021-01-10 20:00:00 0.5 6 Oeste 18 Oeste 0 -- -- 79
2021-01-10 19:00:00 0.9 8 Oeste 20 Oeste 0 -- -- 79
2021-01-10 18:00:00 1.1 6 Oeste 22 Noroeste 0 -- -- 78
2021-01-10 17:00:00 1.6 9 Oeste 26 Noroeste 0 -- -- 76
2021-01-10 16:00:00 2.3 10 Oeste 23 Noroeste 0 -- -- 76
2021-01-10 15:00:00 2.8 9 Oeste 24 Noroeste 0 -- -- 76
2021-01-10 14:00:00 2.8 10 Oeste 24 Oeste 0 -- -- 78
2021-01-10 13:00:00 2.9 9 Oeste 19 Oeste 0 -- -- 78
2021-01-10 12:00:00 2.3 7 Oeste 19 Oeste 0 -- -- 82
2021-01-10 11:00:00 0.9 4 Oeste 11 Oeste 0 -- -- 86
2021-01-10 10:00:00 0.3 0 Calma 9 Noroeste 0 -- -- 88
2021-01-10 09:00:00 0.3 3 Oeste 14 Oeste 0 -- -- 89
2021-01-10 08:00:00 0.6 5 Oeste 15 Oeste 0 -- -- 90
2021-01-10 07:00:00 0.7 6 Oeste 19 Noroeste 0 -- -- 95
2021-01-10 06:00:00 0.6 7 Oeste 16 Oeste 0.2 -- -- 97
2021-01-10 05:00:00 0.4 5 Oeste 12 Noroeste 0.2 -- -- 97
2021-01-10 04:00:00 0.2 2 Oeste 6 Sudoeste 0.4 -- -- 97
2021-01-10 03:00:00 0.2 0 Calma 5 Sudoeste 0.6 -- -- 97
2021-01-10 02:00:00 0.1 2 Oeste 6 Sudoeste 0.4 -- -- 97
2021-01-10 01:00:00 0 2 Oeste 7 Oeste 1.2 -- -- 97
2021-01-10 00:00:00 0 2 Oeste 5 Noroeste 1.2 -- -- 97
2021-01-09 23:00:00 0 2 Oeste 6 Noroeste 1.2 -- -- 97
2021-01-09 22:00:00 0 3 Oeste 6 Oeste 2 -- -- 96
2021-01-09 21:00:00 0.1 3 Oeste 9 Noroeste 0.2 -- -- 96
2021-01-09 20:00:00 0.1 3 Oeste 10 Oeste 0.6 -- -- 96
2021-01-09 19:00:00 0.1 4 Oeste 11 Oeste 0.8 -- -- 96
2021-01-09 18:00:00 0.2 4 Oeste 12 Sudoeste 0.6 -- -- 95
2021-01-09 17:00:00 0.4 5 Oeste 12 Oeste 0.4 -- -- 95
2021-01-09 16:00:00 0.4 3 Oeste 10 Noroeste 1.6 -- -- 95
2021-01-09 15:00:00 0.4 4 Oeste 12 Oeste 1 -- -- 94
2021-01-09 14:00:00 0.5 5 Oeste 17 Oeste 0.8 -- -- 93
2021-01-09 13:00:00 0.5 5 Oeste 15 Oeste 0.8 -- -- 93
2021-01-09 12:00:00 0.3 4 Oeste 10 Oeste 1 -- -- 94
2021-01-09 11:00:00 -0.1 3 Oeste 9 Oeste 0.2 -- -- 95
2021-01-09 10:00:00 -0.4 3 Oeste 5 Noroeste 0.4 -- -- 96
2021-01-09 09:00:00 -0.5 2 Oeste 5 Oeste 1 -- -- 96
2021-01-09 08:00:00 -0.5 2 Oeste 6 Oeste 0.4 -- -- 96
2021-01-09 07:00:00 -0.3 0 Calma 3 Oeste 0.6 -- -- 96
2021-01-09 06:00:00 -0.5 0 Calma 4 Sudoeste 0.4 -- -- 95
2021-01-09 05:00:00 -0.6 0 Calma 5 Noroeste 0.2 -- -- 95
2021-01-09 04:00:00 -0.7 0 Calma 3 Sudoeste 0 -- -- 94
2021-01-09 03:00:00 -0.7 0 Calma 3 Este 0.2 -- -- 94
2021-01-09 02:00:00 -0.6 0 Calma 5 Nordeste 0 -- -- 92
2021-01-09 01:00:00 -0.5 2 Este 6 Este 0 -- -- 89
2021-01-09 00:00:00 -0.6 3 Nordeste 7 Norte 0 -- -- 88
2021-01-08 23:00:00 -0.8 2 Este 5 Norte 0 -- -- 90
2021-01-08 22:00:00 -0.8 0 Calma 5 Nordeste 0 -- -- 89
2021-01-08 21:00:00 -0.8 2 Nordeste 4 Este 0 -- -- 88
2021-01-08 20:00:00 -0.7 0 Calma 3 Este 0 -- -- 87
2021-01-08 19:00:00 -0.3 0 Calma 3 Nordeste 0 -- -- 85
2021-01-08 18:00:00 0.5 0 Calma 6 Sudoeste 0 -- -- 82
2021-01-08 17:00:00 1.1 0 Calma 6 Sudeste 0 -- -- 78
2021-01-08 16:00:00 1.3 0 Calma 5 Sur 0 -- -- 79
2021-01-08 15:00:00 1 3 Este 6 Nordeste 0 -- -- 80
2021-01-08 14:00:00 -0.1 0 Calma 4 Norte 0 -- -- 83
2021-01-08 13:00:00 -1.3 2 Sudoeste 8 Noroeste 0 -- -- 84
2021-01-08 12:00:00 -2.4 4 Norte 8 Noroeste 0 -- -- 85
2021-01-08 11:00:00 -4.1 4 Norte 8 Norte 0 -- -- 90
2021-01-08 10:00:00 -5.3 0 Calma 5 Oeste 0 -- -- 94
2021-01-08 09:00:00 -6.3 0 Calma 4 Sudoeste 0 -- -- 94
2021-01-08 08:00:00 -6.4 2 Sudoeste 4 Sudoeste 0 -- -- 94
2021-01-08 07:00:00 -6.4 0 Calma 3 Sudoeste 0 -- -- 93
2021-01-08 06:00:00 -6.1 0 Calma 2 Sur 0 -- -- 93
2021-01-08 05:00:00 -5.7 0 Calma 4 Sudoeste 0 -- -- 93
2021-01-08 04:00:00 -5.3 0 Calma 3 Sudoeste 0 -- -- 93
2021-01-08 03:00:00 -4.9 0 Calma 4 Sudoeste 0 -- -- 92
2021-01-08 02:00:00 -4.5 0 Calma 4 Oeste 0 -- -- 92
2021-01-08 01:00:00 -3.7 0 Calma 7 Noroeste 0 -- -- 91
2021-01-08 00:00:00 -3.5 3 Oeste 9 Sudoeste 0 -- -- 92
2021-01-07 23:00:00 -3 4 Sudoeste 8 Sudoeste 0 -- -- 92
2021-01-07 22:00:00 -2.6 2 Sudoeste 8 Sudoeste 0 -- -- 91
2021-01-07 21:00:00 -2 4 Sudoeste 8 Sudoeste 0 -- -- 92
2021-01-07 20:00:00 -1.6 0 Calma 5 Sudoeste 0 -- -- 90
2021-01-07 19:00:00 -0.9 2 Oeste 5 Sudoeste 0 -- -- 89
2021-01-07 18:00:00 -0.1 2 Sudoeste 9 Sudoeste 0 -- -- 86
2021-01-07 17:00:00 0.7 0 Calma 9 Sur 0 -- -- 84
2021-01-07 16:00:00 0.9 4 Sudoeste 9 Sudoeste 0 -- -- 83
2021-01-07 15:00:00 0.8 3 Sudoeste 8 Oeste 0 -- -- 82
2021-01-07 14:00:00 0.4 3 Oeste 10 Oeste 0 -- -- 82
2021-01-07 13:00:00 -0.7 3 Sudoeste 5 Sudoeste 0 -- -- 88
2021-01-07 12:00:00 -2.2 3 Sudoeste 6 Oeste 0 -- -- 90
2021-01-07 11:00:00 -3.2 3 Sudoeste 5 Nordeste 0 -- -- 93
2021-01-07 10:00:00 -4.2 2 Este 5 Este 0 -- -- 93
2021-01-07 09:00:00 -4.9 0 Calma 3 Nordeste 0 -- -- 93
2021-01-07 08:00:00 -5 0 Calma 2 Nordeste 0 -- -- 92
2021-01-07 07:00:00 -4.7 0 Calma 7 Nordeste 0 -- -- 91
2021-01-07 06:00:00 -4.3 3 Nordeste 7 Nordeste 0 -- -- 91
2021-01-07 05:00:00 -4.2 0 Calma 8 Nordeste 0 -- -- 91
2021-01-07 04:00:00 -3.5 3 Nordeste 8 Nordeste 0 -- -- 91
2021-01-07 03:00:00 -3.4 3 Nordeste 7 Nordeste 0 -- -- 91
2021-01-07 02:00:00 -3.2 4 Nordeste 8 Este 0 -- -- 91
2021-01-07 01:00:00 -3.3 3 Nordeste 8 Nordeste 0 -- -- 91
2021-01-07 00:00:00 -3.1 3 Nordeste 10 Nordeste 0 -- -- 89
2021-01-06 23:00:00 -2.8 3 Nordeste 6 Nordeste 0 -- -- 88
2021-01-06 22:00:00 -2.2 2 Nordeste 5 Nordeste 0 -- -- 86
2021-01-06 21:00:00 -1.1 0 Calma 2 Este 0 -- -- 83
2021-01-06 20:00:00 0.2 0 Calma 2 Sudoeste 0 -- -- 79
2021-01-06 19:00:00 2.2 2 Sudoeste 6 Sudoeste 0 -- -- 72
2021-01-06 18:00:00 4.4 3 Sudoeste 9 Sudoeste 0 -- -- 65
2021-01-06 17:00:00 6.8 5 Sudoeste 9 Sudoeste 0 -- -- 54
2021-01-06 16:00:00 7 4 Oeste 13 Sudoeste 0 -- -- 52
2021-01-06 15:00:00 6.2 5 Noroeste 12 Oeste 0 -- -- 56
2021-01-06 14:00:00 4.9 3 Sudoeste 8 Sur 0 -- -- 64
2021-01-06 13:00:00 3.1 3 Sudoeste 8 Sudoeste 0 -- -- 72
2021-01-06 12:00:00 1.1 2 Sudoeste 6 Oeste 0 -- -- 77
2021-01-06 11:00:00 -1.7 4 Sudoeste 6 Sudoeste 0 -- -- 94
2021-01-06 10:00:00 -4.3 2 Nordeste 4 Nordeste 0 -- -- 93
2021-01-06 09:00:00 -4.8 0 Calma 4 Nordeste 0 -- -- 93
2021-01-06 08:00:00 -4.3 0 Calma 2 Oeste 0 -- -- 93
2021-01-06 07:00:00 -3.9 0 Calma 4 Sudoeste 0 -- -- 92
2021-01-06 06:00:00 -3.2 3 Sudoeste 6 Sudoeste 0 -- -- 91
2021-01-06 05:00:00 -3 2 Sudoeste 5 Sur 0 -- -- 91
2021-01-06 04:00:00 -3 2 Sudoeste 5 Sudoeste 0 -- -- 90
2021-01-06 03:00:00 -2.9 0 Calma 5 Sudoeste 0 -- -- 90
2021-01-06 02:00:00 -2.3 3 Sudoeste 7 Sur 0 -- -- 89
2021-01-06 01:00:00 -1.7 2 Sudoeste 6 Sudoeste 0 -- -- 88
2021-01-06 00:00:00 -1.1 2 Sudoeste 6 Sudoeste 0 -- -- 86
2021-01-05 23:00:00 -0.2 3 Oeste 9 Oeste 0 -- -- 83
2021-01-05 22:00:00 0.3 2 Sur 9 Noroeste 0 -- -- 80
2021-01-05 21:00:00 1 3 Nordeste 10 Noroeste 0 -- -- 79
2021-01-05 20:00:00 1.3 2 Sudoeste 9 Noroeste 0 -- -- 79
2021-01-05 19:00:00 2.5 4 Oeste 12 Oeste 0 -- -- 75
2021-01-05 18:00:00 3.9 4 Oeste 13 Noroeste 0 -- -- 70
2021-01-05 17:00:00 5.5 6 Norte 18 Oeste 0 -- -- 65
2021-01-05 16:00:00 6.2 7 Norte 19 Norte 0 -- -- 61
2021-01-05 15:00:00 6.7 6 Oeste 18 Noroeste 0 -- -- 65
2021-01-05 14:00:00 6.6 9 Oeste 20 Oeste 0 -- -- 66
2021-01-05 13:00:00 5.5 10 Oeste 22 Oeste 0 -- -- 72
2021-01-05 12:00:00 3.4 5 Oeste 12 Sudoeste 0 -- -- 83
2021-01-05 11:00:00 1.7 4 Sudoeste 8 Sudoeste 0 -- -- 89
2021-01-05 10:00:00 -0.1 4 Sudoeste 6 Sudoeste 0 -- -- 95
2021-01-05 09:00:00 -0.2 0 Calma 4 Sudoeste 0 -- -- 94
2021-01-05 08:00:00 -0.1 0 Calma 4 Noroeste 0 -- -- 94
2021-01-05 07:00:00 -0.1 0 Calma 8 Sudoeste 0 -- -- 94
2021-01-05 06:00:00 -0.6 0 Calma 10 Noroeste 0 -- -- 94
2021-01-05 05:00:00 -0.9 2 Sudoeste 9 Sudoeste 0 -- -- 92
2021-01-05 04:00:00 -0.3 3 Sudoeste 8 Sudoeste 0 -- -- 92
2021-01-05 03:00:00 -0.6 2 Sudoeste 6 Sudoeste 0 -- -- 91
2021-01-05 02:00:00 0.1 3 Oeste 10 Sudoeste 0 -- -- 90
2021-01-05 01:00:00 0.6 2 Sudoeste 13 Oeste 0 -- -- 89
2021-01-05 00:00:00 0.9 4 Oeste 13 Oeste 0 -- -- 88
2021-01-04 23:00:00 1.5 5 Oeste 13 Oeste 0 -- -- 86
2021-01-04 22:00:00 2 4 Oeste 12 Noroeste 0 -- -- 84
2021-01-04 21:00:00 2.8 4 Oeste 17 Oeste 0 -- -- 85
2021-01-04 20:00:00 3.1 8 Oeste 26 Oeste 0 -- -- 82
2021-01-04 19:00:00 3.9 9 Oeste 21 Noroeste 0 -- -- 74
2021-01-04 18:00:00 4 5 Oeste 14 Sur 0 -- -- 75
2021-01-04 17:00:00 5.4 7 Oeste 16 Sudoeste 0 -- -- 69
2021-01-04 16:00:00 6 3 Oeste 14 Oeste 0 -- -- 69
2021-01-04 15:00:00 5.3 4 Oeste 10 Oeste 0 -- -- 70
2021-01-04 14:00:00 4.6 4 Norte 12 Norte 0 -- -- 76
2021-01-04 13:00:00 4.3 3 Noroeste 12 Oeste 0 -- -- 76
2021-01-04 12:00:00 4.1 3 Sudoeste 8 Oeste 0 -- -- 79
2021-01-04 11:00:00 1.3 3 Nordeste 9 Nordeste 0 -- -- 97
2021-01-04 10:00:00 -1.4 0 Calma 6 Nordeste 0 -- -- 96
2021-01-04 09:00:00 -2.3 0 Calma 3 Nordeste 0 -- -- 96
2021-01-04 08:00:00 -2 0 Calma 5 Nordeste 0 -- -- 95
2021-01-04 07:00:00 -1.9 0 Calma 5 Nordeste 0 -- -- 95
2021-01-04 06:00:00 -1.4 0 Calma 3 Nordeste 0 -- -- 95
2021-01-04 05:00:00 -1.1 0 Calma 3 Sudoeste 0 -- -- 95
2021-01-04 04:00:00 -0.5 0 Calma 3 Sudoeste 0 -- -- 94
2021-01-04 03:00:00 -0.3 0 Calma 2 Norte 0 -- -- 94
2021-01-04 02:00:00 0.4 0 Calma 3 Nordeste 0 -- -- 93
2021-01-04 01:00:00 1.3 0 Calma 5 Noroeste 0 -- -- 93
2021-01-04 00:00:00 2 0 Calma 8 Oeste 0 -- -- 92
2021-01-03 23:00:00 2.2 4 Oeste 18 Noroeste 0 -- -- 91
2021-01-03 22:00:00 3.1 8 Oeste 23 Oeste 0 -- -- 86
2021-01-03 21:00:00 2.9 5 Oeste 13 Oeste 0 -- -- 80
2021-01-03 20:00:00 2.9 3 Oeste 9 Sudoeste 0 -- -- 79
2021-01-03 19:00:00 4.3 4 Sudoeste 9 Sudoeste 0 -- -- 73
2021-01-03 18:00:00 5.7 2 Sudoeste 14 Noroeste 0 -- -- 67
2021-01-03 17:00:00 7.6 8 Oeste 24 Oeste 0 -- -- 60
2021-01-03 16:00:00 8.2 10 Oeste 25 Oeste 0 -- -- 58
2021-01-03 15:00:00 8 6 Noroeste 24 Oeste 0 -- -- 63
2021-01-03 14:00:00 7.9 12 Oeste 28 Oeste 0 -- -- 61
2021-01-03 13:00:00 7.2 10 Oeste 22 Oeste 0 -- -- 67
2021-01-03 12:00:00 5.7 6 Oeste 27 Noroeste 0 -- -- 71
2021-01-03 11:00:00 4.1 7 Oeste 16 Oeste 0 -- -- 76
2021-01-03 10:00:00 1.9 5 Oeste 17 Noroeste 0 -- -- 81
2021-01-03 09:00:00 0.6 6 Oeste 18 Oeste 0 -- -- 82
2021-01-03 08:00:00 0.6 5 Oeste 21 Noroeste 0 -- -- 79
2021-01-03 07:00:00 0.9 9 Oeste 21 Oeste 0 -- -- 78
2021-01-03 06:00:00 1.1 9 Oeste 29 Sudoeste 0 -- -- 76
2021-01-03 05:00:00 0.8 10 Oeste 24 Oeste 0 -- -- 78
2021-01-03 04:00:00 0.8 5 Oeste 29 Oeste 0 -- -- 73
2021-01-03 03:00:00 1.2 7 Oeste 31 Oeste 0 -- -- 70
2021-01-03 02:00:00 1 10 Oeste 30 Noroeste 0 -- -- 74
2021-01-03 01:00:00 1.3 11 Oeste 31 Oeste 0 -- -- 68
2021-01-03 00:00:00 1.6 10 Oeste 32 Oeste 0 -- -- 62
2021-01-02 23:00:00 1.8 8 Oeste 28 Oeste 0 -- -- 61
2021-01-02 22:00:00 2 11 Oeste 31 Noroeste 0 -- -- 61
2021-01-02 21:00:00 2.1 11 Oeste 31 Oeste 0 -- -- 60
2021-01-02 20:00:00 2.2 7 Oeste 22 Norte 0 -- -- 64
2021-01-02 19:00:00 2.4 8 Norte 29 Oeste 0 -- -- 63
2021-01-02 18:00:00 2.8 8 Oeste 32 Oeste 0 -- -- 59
2021-01-02 17:00:00 4 10 Norte 37 Oeste 0 -- -- 51
2021-01-02 16:00:00 5.4 12 Oeste 38 Noroeste 0 -- -- 48
2021-01-02 15:00:00 5.9 13 Norte 37 Norte 0 -- -- 46
2021-01-02 14:00:00 6 11 Norte 36 Oeste 0 -- -- 46